createdAt,value
2018-07-01T00:01:25.136Z,59.00
2018-07-01T00:06:25.545Z,59.50
2018-07-01T00:08:56.079Z,60.00
2018-07-01T00:13:56.670Z,61.30
2018-07-01T00:16:27.198Z,61.10
2018-07-01T00:18:57.794Z,62.90
2018-07-01T00:21:28.329Z,61.80
2018-07-01T00:23:58.981Z,61.60
2018-07-01T00:26:29.555Z,62.20
2018-07-01T00:29:00.053Z,63.00
2018-07-01T00:31:30.538Z,64.70
2018-07-01T00:34:00.979Z,64.20
2018-07-01T00:36:31.510Z,64.90
2018-07-01T00:39:02.001Z,63.70
2018-07-01T00:41:32.531Z,63.70
2018-07-01T00:44:03.025Z,64.30
2018-07-01T00:46:33.645Z,64.10
2018-07-01T00:49:04.540Z,63.70
2018-07-01T00:51:35.772Z,63.60
2018-07-01T00:54:06.723Z,64.20
2018-07-01T00:56:37.232Z,65.70
2018-07-01T00:59:07.642Z,66.20
2018-07-01T01:01:38.053Z,67.00
2018-07-01T01:04:08.518Z,66.30
2018-07-01T01:06:39.006Z,66.70
2018-07-01T01:09:12.531Z,66.10
2018-07-01T01:11:43.022Z,67.60
2018-07-01T01:14:13.454Z,67.80
2018-07-01T01:19:14.678Z,67.80
2018-07-01T01:21:45.106Z,67.40
2018-07-01T01:24:15.607Z,66.10
2018-07-01T01:26:46.048Z,66.20
2018-07-01T01:29:16.465Z,66.30
2018-07-01T01:31:46.923Z,66.40
2018-07-01T01:34:17.407Z,66.60
2018-07-01T01:36:47.937Z,66.00
2018-07-01T01:39:22.198Z,65.90
2018-07-01T01:41:56.733Z,66.30
2018-07-01T01:44:36.027Z,65.60
2018-07-01T01:47:12.082Z,66.30
2018-07-01T01:51:54.021Z,68.00
2018-07-01T01:55:27.329Z,66.70
2018-07-01T01:58:08.248Z,66.30
2018-07-01T02:00:43.732Z,66.70
2018-07-01T02:03:29.940Z,66.30
2018-07-01T02:06:04.289Z,68.30
2018-07-01T02:08:43.214Z,67.20
2018-07-01T02:11:13.787Z,67.20
2018-07-01T02:13:47.494Z,68.70
2018-07-01T02:16:24.010Z,69.80
2018-07-01T02:18:54.430Z,68.90
2018-07-01T02:21:24.911Z,69.50
2018-07-01T02:23:58.611Z,69.70
2018-07-01T02:26:31.953Z,69.40
2018-07-01T02:29:03.072Z,69.50
2018-07-01T02:31:33.584Z,70.10
2018-07-01T02:34:04.029Z,70.40
2018-07-01T02:36:34.506Z,70.90
2018-07-01T02:39:07.634Z,70.60
2018-07-01T02:41:38.660Z,71.10
2018-07-01T02:44:09.186Z,71.50
2018-07-01T02:46:39.761Z,71.90
2018-07-01T02:49:10.255Z,73.10
2018-07-01T02:51:40.700Z,71.00
2018-07-01T02:54:11.286Z,70.50
2018-07-01T02:56:41.723Z,70.70
2018-07-01T02:59:12.145Z,71.30
2018-07-01T03:01:42.684Z,70.50
2018-07-01T03:04:13.232Z,70.50
2018-07-01T03:06:43.703Z,70.50
2018-07-01T03:09:14.731Z,71.10
2018-07-01T03:11:45.220Z,71.00
2018-07-01T03:14:16.023Z,70.90
2018-07-01T03:16:46.464Z,70.90
2018-07-01T03:19:16.958Z,71.30
2018-07-01T03:21:47.366Z,71.80
2018-07-01T03:24:17.740Z,72.10
2018-07-01T03:26:48.102Z,72.30
2018-07-01T03:29:18.507Z,72.40
2018-07-01T03:31:48.918Z,72.40
2018-07-01T03:34:19.428Z,72.50
2018-07-01T03:36:49.897Z,73.00
2018-07-01T03:39:21.220Z,73.20
2018-07-01T03:41:51.646Z,73.20
2018-07-01T03:44:22.134Z,73.60
2018-07-01T03:46:52.509Z,73.60
2018-07-01T03:49:22.953Z,73.50
2018-07-01T03:51:53.373Z,74.40
2018-07-01T03:54:23.792Z,73.60
2018-07-01T03:56:54.303Z,73.90
2018-07-01T03:59:24.742Z,74.30
2018-07-01T04:01:55.134Z,74.20
2018-07-01T04:04:25.608Z,74.60
2018-07-01T04:09:26.268Z,74.70
2018-07-01T04:11:56.783Z,74.20
2018-07-01T04:14:27.393Z,75.10
2018-07-01T04:16:57.896Z,73.90
2018-07-01T04:19:35.913Z,74.10
2018-07-01T04:22:08.550Z,73.90
2018-07-01T04:24:39.508Z,73.70
2018-07-01T04:27:09.994Z,74.30
2018-07-01T04:32:11.117Z,74.50
2018-07-01T04:34:42.308Z,74.70
2018-07-01T04:37:12.746Z,75.30
2018-07-01T04:39:43.292Z,75.10
2018-07-01T04:42:13.831Z,74.80
2018-07-01T04:44:44.322Z,74.80
2018-07-01T04:47:15.045Z,75.40
2018-07-01T04:49:45.627Z,74.80
2018-07-01T04:52:16.185Z,75.60
2018-07-01T04:54:46.632Z,76.90
2018-07-01T04:57:17.100Z,75.50
2018-07-01T04:59:47.584Z,75.10
2018-07-01T05:02:18.027Z,74.00
2018-07-01T05:04:48.530Z,72.30
2018-07-01T05:07:18.972Z,71.40
2018-07-01T05:09:49.461Z,72.00
2018-07-01T05:12:19.887Z,69.90
2018-07-01T05:14:50.330Z,66.60
2018-07-01T05:17:20.897Z,66.00
2018-07-01T05:19:51.390Z,64.60
2018-07-01T05:22:21.860Z,64.10
2018-07-01T05:24:52.447Z,64.30
2018-07-01T05:27:22.872Z,61.60
2018-07-01T05:29:53.303Z,60.90
2018-07-01T05:32:23.749Z,61.50
2018-07-01T05:34:54.229Z,61.70
2018-07-01T05:37:24.677Z,60.30
2018-07-01T05:39:55.183Z,60.00
2018-07-01T05:42:25.642Z,60.50
2018-07-01T05:44:56.073Z,59.50
2018-07-01T05:47:27.609Z,59.20
2018-07-01T05:49:58.058Z,59.60
2018-07-01T05:52:28.585Z,59.30
2018-07-01T05:54:59.021Z,59.30
2018-07-01T05:57:29.515Z,59.50
2018-07-01T06:02:30.104Z,59.00
2018-07-01T06:05:00.590Z,59.40
2018-07-01T06:07:31.397Z,59.60
2018-07-01T06:10:01.858Z,59.30
2018-07-01T06:12:32.299Z,60.20
2018-07-01T06:15:02.809Z,59.30
2018-07-01T06:17:33.239Z,58.00
2018-07-01T06:20:03.813Z,59.20
2018-07-01T06:22:34.341Z,58.80
2018-07-01T06:25:04.948Z,59.70
2018-07-01T06:27:35.490Z,59.90
2018-07-01T06:30:07.639Z,59.40
2018-07-01T06:32:38.094Z,59.90
2018-07-01T06:35:09.293Z,59.00
2018-07-01T06:37:39.740Z,59.30
2018-07-01T06:40:10.245Z,58.70
2018-07-01T06:42:40.785Z,59.20
2018-07-01T06:45:11.337Z,59.70
2018-07-01T06:47:41.920Z,59.70
2018-07-01T06:50:12.359Z,59.80
2018-07-01T06:52:42.813Z,59.70
2018-07-01T06:55:13.277Z,60.40
2018-07-01T06:57:43.683Z,60.70
2018-07-01T07:00:14.174Z,60.40
2018-07-01T07:02:44.618Z,60.20
2018-07-01T07:05:15.120Z,60.10
2018-07-01T07:07:45.705Z,61.30
2018-07-01T07:10:16.223Z,60.80
2018-07-01T07:12:46.741Z,60.50
2018-07-01T07:15:17.275Z,62.20
2018-07-01T07:17:47.810Z,60.60
2018-07-01T07:20:30.257Z,61.60
2018-07-01T07:23:00.629Z,60.00
2018-07-01T07:25:31.049Z,61.70
2018-07-01T07:28:01.488Z,60.50
2018-07-01T07:30:32.063Z,59.60
2018-07-01T07:33:02.598Z,60.00
2018-07-01T07:35:33.142Z,60.10
2018-07-01T07:38:03.669Z,59.30
2018-07-01T07:40:34.132Z,59.50
2018-07-01T07:43:04.631Z,59.20
2018-07-01T07:45:35.138Z,60.10
2018-07-01T07:48:05.525Z,59.20
2018-07-01T07:50:35.998Z,60.00
2018-07-01T07:53:06.373Z,60.10
2018-07-01T07:55:36.794Z,60.50
2018-07-01T07:58:07.385Z,60.70
2018-07-01T08:00:37.829Z,61.30
2018-07-01T08:03:08.350Z,60.70
2018-07-01T08:05:38.833Z,60.10
2018-07-01T08:08:09.318Z,59.50
2018-07-01T08:10:39.817Z,60.80
2018-07-01T08:13:10.492Z,59.90
2018-07-01T08:15:41.024Z,59.70
2018-07-01T08:18:11.594Z,59.10
2018-07-01T08:20:42.091Z,58.90
2018-07-01T08:23:12.624Z,59.90
2018-07-01T08:25:43.147Z,59.80
2018-07-01T08:28:13.615Z,58.90
2018-07-01T08:30:44.050Z,58.70
2018-07-01T08:33:14.545Z,58.60
2018-07-01T08:35:44.980Z,59.20
2018-07-01T08:38:15.542Z,59.20
2018-07-01T08:40:45.992Z,58.30
2018-07-01T08:43:16.437Z,58.20
2018-07-01T08:45:46.910Z,58.20
2018-07-01T08:48:17.883Z,59.00
2018-07-01T08:50:48.301Z,59.30
2018-07-01T08:53:18.816Z,59.10
2018-07-01T08:55:49.285Z,58.90
2018-07-01T08:58:19.822Z,59.20
2018-07-01T09:00:50.282Z,59.80
2018-07-01T09:03:20.698Z,59.80
2018-07-01T09:05:51.206Z,59.20
2018-07-01T09:08:21.572Z,58.30
2018-07-01T09:10:52.129Z,57.80
2018-07-01T09:13:22.585Z,58.30
2018-07-01T09:15:53.089Z,58.50
2018-07-01T09:18:23.503Z,58.20
2018-07-01T09:20:54.107Z,57.80
2018-07-01T09:23:24.609Z,58.20
2018-07-01T09:25:54.941Z,57.40
2018-07-01T09:28:25.374Z,57.90
2018-07-01T09:30:55.890Z,57.80
2018-07-01T09:33:26.323Z,58.70
2018-07-01T09:35:57.026Z,58.20
2018-07-01T09:38:27.561Z,57.50
2018-07-01T09:40:58.014Z,58.20
2018-07-01T09:43:28.431Z,58.80
2018-07-01T09:45:58.873Z,57.80
2018-07-01T09:48:29.281Z,57.60
2018-07-01T09:50:59.768Z,57.60
2018-07-01T09:53:30.268Z,57.30
2018-07-01T09:56:06.901Z,57.50
2018-07-01T09:58:37.483Z,58.10
2018-07-01T10:01:08.068Z,58.80
2018-07-01T10:03:38.476Z,58.30
2018-07-01T10:06:08.985Z,57.90
2018-07-01T10:08:39.555Z,57.70
2018-07-01T10:11:09.994Z,55.90
2018-07-01T10:13:40.516Z,56.70
2018-07-01T10:16:11.862Z,56.50
2018-07-01T10:21:12.538Z,55.70
2018-07-01T10:23:43.066Z,55.60
2018-07-01T10:26:13.754Z,55.30
2018-07-01T10:29:08.149Z,55.70
2018-07-01T10:31:39.063Z,56.90
2018-07-01T10:34:10.691Z,55.30
2018-07-01T10:36:41.285Z,55.90
2018-07-01T10:39:15.735Z,56.40
2018-07-01T10:41:46.311Z,55.70
2018-07-01T10:44:16.783Z,55.20
2018-07-01T10:49:17.269Z,55.40
2018-07-01T10:51:47.769Z,55.20
2018-07-01T10:54:18.768Z,54.60
2018-07-01T10:56:49.202Z,54.40
2018-07-01T10:59:19.819Z,54.10
2018-07-01T11:01:50.246Z,55.60
2018-07-01T11:04:20.754Z,54.30
2018-07-01T11:06:51.281Z,53.10
2018-07-01T11:09:21.721Z,54.30
2018-07-01T11:11:52.200Z,53.40
2018-07-01T11:14:22.726Z,53.20
2018-07-01T11:16:53.324Z,53.50
2018-07-01T11:19:24.749Z,54.30
2018-07-01T11:21:55.213Z,53.50
2018-07-01T11:24:25.695Z,54.40
2018-07-01T11:26:56.264Z,53.70
2018-07-01T11:29:26.618Z,53.30
2018-07-01T11:31:57.027Z,53.40
2018-07-01T11:34:27.501Z,53.10
2018-07-01T11:36:57.913Z,53.70
2018-07-01T11:39:28.300Z,52.20
2018-07-01T11:41:58.806Z,52.90
2018-07-01T11:44:29.567Z,53.50
2018-07-01T11:47:00.028Z,52.70
2018-07-01T11:49:30.433Z,53.70
2018-07-01T11:52:00.853Z,52.80
2018-07-01T11:54:31.350Z,53.80
2018-07-01T11:57:01.920Z,53.20
2018-07-01T11:59:32.346Z,52.60
2018-07-01T12:02:02.769Z,53.00
2018-07-01T12:04:33.247Z,52.60
2018-07-01T12:07:03.693Z,52.60
2018-07-01T12:09:34.154Z,53.00
2018-07-01T12:12:04.763Z,53.10
2018-07-01T12:14:35.060Z,52.20
2018-07-01T12:17:05.547Z,52.40
2018-07-01T12:19:36.624Z,52.80
2018-07-01T12:22:07.248Z,53.10
2018-07-01T12:24:37.786Z,54.10
2018-07-01T12:27:08.263Z,52.30
2018-07-01T12:29:38.724Z,52.20
2018-07-01T12:32:09.170Z,52.80
2018-07-01T12:34:39.683Z,52.20
2018-07-01T12:37:10.191Z,52.20
2018-07-01T12:39:40.655Z,53.70
2018-07-01T12:42:11.147Z,53.80
2018-07-01T12:44:41.526Z,53.60
2018-07-01T12:47:11.997Z,53.00
2018-07-01T12:49:42.533Z,52.30
2018-07-01T12:52:13.033Z,52.70
2018-07-01T12:54:43.429Z,52.10
2018-07-01T12:57:14.057Z,51.70
2018-07-01T12:59:44.600Z,52.20
2018-07-01T13:02:15.158Z,51.40
2018-07-01T13:04:45.640Z,52.00
2018-07-01T13:07:16.151Z,52.30
2018-07-01T13:09:46.598Z,51.00
2018-07-01T13:12:17.338Z,51.60
2018-07-01T13:14:47.832Z,50.40
2018-07-01T13:17:18.437Z,52.30
2018-07-01T13:19:49.238Z,51.60
2018-07-01T13:22:19.730Z,51.90
2018-07-01T13:24:50.179Z,51.20
2018-07-01T13:27:20.775Z,51.30
2018-07-01T13:29:51.229Z,50.60
2018-07-01T13:32:22.428Z,51.60
2018-07-01T13:34:52.885Z,50.80
2018-07-01T13:37:29.632Z,50.00
2018-07-01T13:40:00.049Z,50.60
2018-07-01T13:42:30.539Z,50.70
2018-07-01T13:45:00.992Z,50.20
2018-07-01T13:47:31.561Z,50.90
2018-07-01T13:50:02.168Z,49.50
2018-07-01T13:52:32.626Z,50.00
2018-07-01T13:55:03.631Z,50.00
2018-07-01T13:57:34.115Z,50.60
2018-07-01T14:00:05.157Z,50.80
2018-07-01T14:02:35.644Z,49.60
2018-07-01T14:05:06.212Z,49.80
2018-07-01T14:07:36.665Z,49.50
2018-07-01T14:10:07.160Z,50.30
2018-07-01T14:15:07.569Z,49.60
2018-07-01T14:17:38.212Z,51.30
2018-07-01T14:20:10.516Z,49.20
2018-07-01T14:22:43.993Z,49.70
2018-07-01T14:25:14.497Z,50.50
2018-07-01T14:27:45.174Z,50.90
2018-07-01T14:30:15.838Z,51.10
2018-07-01T14:32:47.096Z,50.20
2018-07-01T14:35:17.717Z,49.20
2018-07-01T14:37:48.336Z,50.10
2018-07-01T14:40:18.840Z,51.30
2018-07-01T14:42:50.206Z,48.60
2018-07-01T14:45:20.739Z,50.10
2018-07-01T14:47:51.278Z,49.50
2018-07-01T14:50:21.695Z,48.30
2018-07-01T14:52:52.688Z,49.30
2018-07-01T14:55:23.343Z,49.40
2018-07-01T14:57:53.981Z,50.30
2018-07-01T15:00:25.535Z,50.30
2018-07-01T15:02:56.111Z,49.40
2018-07-01T15:05:26.716Z,50.00
2018-07-01T15:08:03.376Z,48.60
2018-07-01T15:10:34.264Z,50.30
2018-07-01T15:13:06.146Z,50.40
2018-07-01T15:15:36.623Z,50.90
2018-07-01T15:18:07.354Z,50.00
2018-07-01T15:20:37.831Z,49.90
2018-07-01T15:23:08.319Z,50.90
2018-07-01T15:25:38.709Z,50.30
2018-07-01T15:28:09.301Z,50.00
2018-07-01T15:30:39.836Z,50.20
2018-07-01T15:33:10.381Z,50.20
2018-07-01T15:35:41.873Z,49.20
2018-07-01T15:38:12.510Z,50.30
2018-07-01T15:43:13.154Z,49.50
2018-07-01T15:45:43.663Z,48.90
2018-07-01T15:50:44.245Z,49.00
2018-07-01T15:53:14.780Z,49.40
2018-07-01T15:55:45.312Z,47.60
2018-07-01T15:58:15.972Z,48.00
2018-07-01T16:00:46.481Z,48.50
2018-07-01T16:03:17.046Z,48.70
2018-07-01T16:05:47.556Z,48.40
2018-07-01T16:08:18.036Z,48.10
2018-07-01T16:10:48.520Z,49.20
2018-07-01T16:13:19.643Z,49.90
2018-07-01T16:15:50.138Z,48.70
2018-07-01T16:18:20.541Z,48.90
2018-07-01T16:20:51.026Z,48.10
2018-07-01T16:23:21.500Z,48.60
2018-07-01T16:25:57.400Z,48.50
2018-07-01T16:28:33.064Z,47.90
2018-07-01T16:31:03.889Z,48.50
2018-07-01T16:33:34.391Z,49.50
2018-07-01T16:36:04.968Z,49.30
2018-07-01T16:38:35.490Z,48.30
2018-07-01T16:41:05.968Z,47.80
2018-07-01T16:43:36.473Z,49.10
2018-07-01T16:46:07.003Z,48.60
2018-07-01T16:48:37.442Z,49.30
2018-07-01T16:51:08.073Z,48.90
2018-07-01T16:53:39.173Z,49.80
2018-07-01T16:56:09.659Z,49.30
2018-07-01T16:58:40.102Z,49.40
2018-07-01T17:01:10.653Z,50.10
2018-07-01T17:03:41.126Z,49.60
2018-07-01T17:06:11.629Z,49.00
2018-07-01T17:08:42.130Z,50.00
2018-07-01T17:11:12.571Z,49.30
2018-07-01T17:13:43.141Z,49.30
2018-07-01T17:16:13.522Z,48.60
2018-07-01T17:18:44.043Z,48.50
2018-07-01T17:21:14.512Z,49.30
2018-07-01T17:23:44.969Z,49.20
2018-07-01T17:26:15.416Z,49.10
2018-07-01T17:28:46.191Z,50.10
2018-07-01T17:31:21.702Z,49.80
2018-07-01T17:33:54.236Z,49.70
2018-07-01T17:36:24.746Z,48.80
2018-07-01T17:38:55.314Z,48.80
2018-07-01T17:41:26.573Z,48.90
2018-07-01T17:43:57.713Z,49.00
2018-07-01T17:46:28.357Z,48.40
2018-07-01T17:48:59.113Z,48.90
2018-07-01T17:51:29.648Z,48.70
2018-07-01T17:54:00.368Z,48.60
2018-07-01T17:56:30.800Z,48.90
2018-07-01T17:59:01.473Z,48.70
2018-07-01T18:01:31.999Z,48.90
2018-07-01T18:04:02.447Z,48.50
2018-07-01T18:06:33.189Z,48.70
2018-07-01T18:09:03.953Z,48.50
2018-07-01T18:11:34.906Z,49.10
2018-07-01T18:14:05.612Z,48.40
2018-07-01T18:16:36.881Z,48.70
2018-07-01T18:19:07.641Z,48.70
2018-07-01T18:21:41.212Z,49.00
2018-07-01T18:24:35.133Z,48.90
2018-07-01T18:26:40.306Z,48.40
2018-07-01T18:31:41.608Z,48.60
2018-07-01T18:34:12.341Z,49.00
2018-07-01T18:36:43.104Z,49.00
2018-07-01T18:39:15.355Z,49.30
2018-07-01T18:41:46.159Z,49.20
2018-07-01T18:44:16.943Z,49.30
2018-07-01T18:46:47.771Z,49.20
2018-07-01T18:49:18.665Z,50.10
2018-07-01T18:51:49.426Z,49.80
2018-07-01T18:54:20.387Z,50.00
2018-07-01T18:56:51.331Z,49.70
2018-07-01T18:59:22.329Z,50.00
2018-07-01T19:01:53.304Z,50.40
2018-07-01T19:04:24.361Z,50.90
2018-07-01T19:06:55.142Z,51.00
2018-07-01T19:09:25.775Z,51.30
2018-07-01T19:11:56.493Z,51.90
2018-07-01T19:14:27.235Z,52.40
2018-07-01T19:16:58.039Z,52.70
2018-07-01T19:19:29.338Z,53.20
2018-07-01T19:22:00.081Z,53.90
2018-07-01T19:24:30.951Z,53.40
2018-07-01T19:27:01.795Z,53.10
2018-07-01T19:29:32.551Z,53.30
2018-07-01T19:32:03.300Z,53.30
2018-07-01T19:34:34.344Z,53.40
2018-07-01T19:37:05.179Z,53.30
2018-07-01T19:39:35.887Z,53.40
2018-07-01T19:42:06.730Z,53.70
2018-07-01T19:44:37.537Z,53.70
2018-07-01T19:47:08.260Z,53.70
2018-07-01T19:49:38.988Z,53.70
2018-07-01T19:52:09.679Z,54.10
2018-07-01T19:54:40.533Z,53.90
2018-07-01T19:57:11.211Z,53.90
2018-07-01T19:59:42.022Z,54.30
2018-07-01T20:02:12.783Z,54.40
2018-07-01T20:04:43.604Z,54.50
2018-07-01T20:07:14.622Z,54.20
2018-07-01T20:09:45.539Z,54.10
2018-07-01T20:12:16.373Z,54.30
2018-07-01T20:14:47.204Z,54.70
2018-07-01T20:17:17.946Z,54.90
2018-07-01T20:19:48.525Z,55.00
2018-07-01T20:22:19.174Z,55.00
2018-07-01T20:24:50.246Z,55.10
2018-07-01T20:27:20.725Z,55.10
2018-07-01T20:29:51.121Z,55.20
2018-07-01T20:32:21.625Z,55.50
2018-07-01T20:34:52.068Z,55.60
2018-07-01T20:37:22.592Z,55.80
2018-07-01T20:39:53.048Z,56.00
2018-07-01T20:42:23.574Z,56.30
2018-07-01T20:44:54.091Z,56.30
2018-07-01T20:47:24.608Z,56.40
2018-07-01T20:49:54.994Z,56.60
2018-07-01T20:52:25.522Z,56.60
2018-07-01T20:54:56.093Z,56.70
2018-07-01T20:57:27.230Z,57.00
2018-07-01T20:59:57.813Z,57.10
2018-07-01T21:02:28.313Z,57.10
2018-07-01T21:04:59.010Z,57.10
2018-07-01T21:07:29.531Z,58.20
2018-07-01T21:10:00.258Z,58.20
2018-07-01T21:12:30.772Z,58.30
2018-07-01T21:15:01.283Z,58.00
2018-07-01T21:17:32.029Z,57.90
2018-07-01T21:20:02.647Z,58.30
2018-07-01T21:22:33.196Z,58.20
2018-07-01T21:25:03.734Z,58.20
2018-07-01T21:27:34.194Z,58.30
2018-07-01T21:30:05.034Z,58.00
2018-07-01T21:32:35.602Z,59.80
2018-07-01T21:35:06.267Z,59.40
2018-07-01T21:37:36.873Z,59.90
2018-07-01T21:40:07.702Z,59.70
2018-07-01T21:42:38.161Z,59.70
2018-07-01T21:45:09.189Z,60.90
2018-07-01T21:47:39.664Z,61.20
2018-07-01T21:50:10.452Z,61.20
2018-07-01T21:52:40.775Z,61.70
2018-07-01T21:55:11.230Z,62.20
2018-07-01T21:57:41.690Z,62.40
2018-07-01T22:00:12.965Z,62.80
2018-07-01T22:02:44.474Z,64.50
2018-07-01T22:05:14.893Z,64.80
2018-07-01T22:07:45.296Z,64.00
2018-07-01T22:10:25.771Z,65.40
2018-07-01T22:12:56.232Z,65.30
2018-07-01T22:15:43.610Z,65.40
2018-07-01T22:18:14.005Z,64.90
2018-07-01T22:20:44.436Z,65.40
2018-07-01T22:23:14.990Z,66.90
2018-07-01T22:25:45.533Z,66.50
2018-07-01T22:28:16.015Z,65.60
2018-07-01T22:30:46.498Z,68.10
2018-07-01T22:33:17.146Z,68.50
2018-07-01T22:35:47.522Z,68.80
2018-07-01T22:38:18.006Z,68.30
2018-07-01T22:40:48.485Z,69.20
2018-07-01T22:43:18.884Z,67.70
2018-07-01T22:45:49.694Z,68.40
2018-07-01T22:48:20.173Z,68.80
2018-07-01T22:50:50.659Z,69.70
2018-07-01T22:53:21.874Z,69.10
2018-07-01T22:55:52.144Z,69.50
2018-07-01T22:58:22.530Z,69.10
2018-07-01T23:00:52.953Z,70.10
2018-07-01T23:03:23.095Z,69.90
2018-07-01T23:05:53.240Z,69.30
2018-07-01T23:08:24.833Z,70.00
2018-07-01T23:10:55.311Z,69.60
2018-07-01T23:13:25.713Z,69.90
2018-07-01T23:15:56.149Z,70.00
2018-07-01T23:18:26.585Z,71.40
2018-07-01T23:20:57.028Z,70.00
2018-07-01T23:23:27.453Z,70.80
2018-07-01T23:25:57.915Z,71.00
2018-07-01T23:30:58.540Z,71.40
2018-07-01T23:33:28.988Z,72.20
2018-07-01T23:35:59.536Z,72.70
2018-07-01T23:38:29.989Z,73.00
2018-07-01T23:41:00.536Z,72.80
2018-07-01T23:43:31.221Z,72.80
2018-07-01T23:46:01.711Z,73.00
2018-07-01T23:48:32.171Z,71.80
2018-07-01T23:51:02.708Z,72.70
2018-07-01T23:53:33.185Z,73.30
2018-07-01T23:56:03.716Z,73.10
2018-07-01T23:58:34.183Z,72.40
